Weather observations for the past three days for
Mobridge, Mobridge Municipal Airport
Metric (Imperial)
Date Time (cdt) Wind (kph) Vis. (km) Weather Sky Cond. Temperature (ºC) Relative Humidity Wind Chill (°C) Heat Index (°C) Pressure Precipitation (cm)
Air Dwpt 6 hour altimeter (cm) sea level (mb) 1 hr 3 hr 6 hr
Max. Min.
08 19:52 W 11 16.09 Fair CLR 18.9 1.7 32% 75.39 1005.0
08 18:52 NW 13 16.09 A Few Clouds FEW110 21.1 -0.6 21.7 20 23% 75.41 1005.7
08 17:52 NW 15 16.09 Partly Cloudy SCT100 21.7 0 24% 75.46 1006.3
08 16:52 N 19 G 35 16.09 Fair CLR 21.7 -1.1 22% 75.51 1006.8
08 15:52 N 22 G 50 16.09 Fair CLR 21.1 -2.2 21% 75.57 1007.1
08 14:52 N 30 G 48 16.09 Fair CLR 21.1 -2.8 20% 75.54 1007.1
08 13:52 N 33 G 52 16.09 Fair and Breezy CLR 20.6 -1.7 22% 75.54 1007.2
08 12:52 N 35 G 50 16.09 Fair and Breezy CLR 20 -1.1 20.6 1.7 24% 75.54 1007.3
08 11:52 N 20 16.09 Fair CLR 19.4 1.1 30% 75.54 1007.5
08 10:52 NW 24 G 37 16.09 Fair CLR 17.2 3.3 40% 75.54 1007.1
08 09:52 NW 22 16.09 A Few Clouds FEW110 14.4 2.8 46% 75.54 1007.3
08 08:52 Calm 16.09 Partly Cloudy SCT075 10 1.1 54% 75.54 1007.5
08 07:52 Calm 16.09 Fair CLR 6.1 1.1 71% 75.54 1007.3
08 06:52 Calm 16.09 A Few Clouds FEW120 1.7 -1.1 8.3 1.1 82% 75.51 1007.5
08 05:52 SE 6 16.09 Partly Cloudy SCT120 2.8 -0.6 79% 75.51 1007.2
08 04:52 Calm 16.09 Fair CLR 2.8 0 82% 75.54 1007.4
08 03:52 Calm 16.09 Overcast OVC110 6.7 1.7 71% 75.54 1007.3
08 02:52 Calm 16.09 Overcast BKN100 OVC110 7.8 -1.7 51% 75.57 1007.7
08 01:52 Calm 16.09 Overcast OVC110 5.6 -1.7 60% 75.57 1008.0
08 00:52 Calm 16.09 Overcast OVC110 5.6 -1.7 16.1 2.2 60% 75.57 1008.0
07 23:52 Calm 16.09 Fair CLR 2.2 -3.3 67% 75.62 1008.9
07 22:52 E 7 16.09 Fair CLR 6.1 -3.3 51% 5 75.62 1008.6
07 21:52 SE 7 16.09 Fair CLR 7.8 -3.9 44% 7 75.59 1008.4
07 20:52 SE 6 16.09 Fair CLR 11.1 -1.1 43% 75.54 1007.9
07 19:52 S 9 16.09 Fair CLR 15.6 -3.3 27% 75.54 1007.7
07 18:52 SW 17 16.09 Fair CLR 16.1 -6.1 18.3 13.9 21% 75.57 1008.2
07 17:52 NW 11 16.09 Fair CLR 17.8 -7.8 17% 75.59 1008.4
07 16:52 Vrbl 6 16.09 Fair CLR 17.8 -7.2 18% 75.62 1008.9
07 15:52 NW 17 G 26 16.09 Fair CLR 17.8 -6.7 18% 75.67 1009.2
07 14:52 Vrbl 9 16.09 Fair CLR 16.1 -8.3 18% 75.69 1009.7
07 13:52 NW 13 16.09 Fair CLR 15.6 -7.2 20% 75.72 1010.1
07 12:52 Calm 16.09 Fair CLR 15 -7.2 15 -1.1 21% 75.74 1010.5
07 11:52 Calm 16.09 Fair CLR 13.9 -9.4 19% 75.79 1011.0
07 10:52 NW 9 16.09 Fair CLR 11.1 -0.6 45% 75.82 1011.6
07 09:52 Vrbl 7 16.09 Fair CLR 8.9 -2.2 46% 8 75.82 1011.5
07 08:52 SW 7 16.09 Fair CLR 5 -1.7 62% 4 75.79 1011.5
07 07:52 S 9 16.09 Fair CLR 2.8 -2.8 67% 1 75.77 1011.3
07 06:52 SE 6 16.09 Fair CLR -1.1 -3.9 2.2 -3.3 82% 75.74 1010.9
07 05:52 SE 13 16.09 Fair CLR -1.7 -5.6 75% -6 75.74 1010.7
07 04:52 SE 13 16.09 Fair CLR -1.7 -5.6 75% -6 75.74 1011.0
07 03:52 E 17 16.09 Fair CLR 0.6 -5.6 64% -4 75.79 1011.3
07 02:52 E 19 16.09 Fair CLR 1.7 -5.6 59% -2 75.79 1011.4
07 01:52 E 15 16.09 Fair CLR 1.7 -5 61% -2 75.82 1011.7
07 00:52 E 13 16.09 Fair CLR 1.7 -5.6 12.8 1.1 59% -2 75.82 1011.6
06 23:52 E 22 16.09 Fair CLR 4.4 -5.6 49% 0 75.79 1011.4
06 22:52 E 20 16.09 A Few Clouds FEW110 5.6 -5.6 45% 2 75.82 1011.9
06 21:52 E 15 16.09 Overcast OVC095 7.2 -6.1 39% 5 75.87 1012.4
06 20:52 NE 15 16.09 Overcast OVC095 8.3 -6.1 36% 6 75.84 1012.2
06 19:52 E 13 16.09 Overcast OVC100 10 -5 35% 8 75.84 1012.4
06 18:52 NW 6 16.09 Mostly Cloudy BKN090 11.7 -6.1 13.3 10 28% 75.9 1012.9
06 17:52 NW 11 16.09 Overcast OVC090 12.2 -6.1 28% 75.92 1013.5
06 16:52 N 17 16.09 Overcast OVC085 12.2 -6.1 28% 75.97 1014.3
06 15:52 NW 17 G 33 16.09 Overcast OVC085 11.7 -6.1 28% 76.05 1015.1
06 14:52 NW 20 G 39 16.09 Overcast OVC075 11.7 -6.1 28% 76.1 1015.6
06 13:52 NW 26 G 37 16.09 Mostly Cloudy BKN075 10.6 -6.1 31% 76.15 1016.6
06 12:52 NW 24 G 41 16.09 Mostly Cloudy BKN070 10.6 -6.1 11.1 -3.9 31% 76.2 1017.3
06 11:52 Calm 16.09 A Few Clouds FEW060 8.9 -5.6 36% 76.25 1018.0
06 10:52 W 13 16.09 Fair CLR 7.2 -6.1 39% 5 76.3 1018.6
06 09:52 Vrbl 7 16.09 Fair CLR 3.9 -4.4 55% 2 76.3 1018.8
06 08:52 NW 15 16.09 Fair CLR 1.7 -3.9 67% -2 76.33 1018.9
06 07:52 NW 7 16.09 Fair CLR -1.7 -5.6 75% -4 76.3 1018.8
06 06:52 NW 6 16.09 Fair CLR -3.3 -6.1 -3.3 -6.7 81% 76.25 1018.3
06 05:52 N 7 16.09 Fair CLR -6.1 -6.7 96% -9 76.23 1017.9
06 04:52 Calm 16.09 Overcast OVC110 -5.6 -5.6 100% 76.23 1017.8
06 03:52 Calm 16.09 Overcast OVC110 -4.4 -5.6 91% 76.23 1017.8
06 02:52 Calm 16.09 Mostly Cloudy BKN110 -4.4 -5.6 91% 76.2 1017.6
06 01:52 Calm 16.09 Fair CLR -5 -7.2 85% 76.23 1017.9
06 00:52 Calm 16.09 Fair CLR -4.4 -6.7 7.2 -4.4 84% 76.23 1017.8
05 23:52 N 6 16.09 Partly Cloudy SCT080 -2.8 -6.1 78% 76.17 1017.2
05 22:52 N 9 16.09 Fair CLR -0.6 -6.1 67% -3 76.17 1017.1
05 21:52 N 11 16.09 Overcast OVC085 2.8 -5.6 54% 0 76.15 1016.4
05 20:52 N 15 16.09 Mostly Cloudy BKN080 4.4 -6.1 47% 1 76.1 1015.7
Date Time (cdt) Wind (kph) Vis. (km) Weather Sky Cond. Air Dwpt Max. Min. Relative Humidity Wind Chill (°C) Heat Index (°C) altimeter (cm) sea level (mb) 1 hr 3 hr 6 hr
6 hour
Temperature (ºC) Pressure Precipitation (cm)